Time;durP1;ratioP1;P1;durP2;ratioP2;P2;SDS_P1;SDS_P2;PMS_P1;PMS_P2;Temp;Humidity;BMP_temperature;BMP_pressure;BME280_temperature;BME280_humidity;BME280_pressure;Samples;Min_cycle;Max_cycle;Signal;HPM_P1;HPM_P2
2023/03/12 00:00:20;;;;;;;6.10;1.55;;;;;;;6.84;41.26;98403.69;6110719;23;20007;-92
2023/03/12 00:02:46;;;;;;;4.13;1.50;;;;;;;6.92;41.42;98411.19;6110714;23;20005;-92
2023/03/12 00:05:15;;;;;;;4.82;1.70;;;;;;;6.86;41.67;98398.88;6109898;23;20513;-92
2023/03/12 00:07:40;;;;;;;2.13;1.50;;;;;;;6.75;42.28;98413.34;6111762;23;20044;-92
2023/03/12 00:10:07;;;;;;;4.22;1.90;;;;;;;6.68;42.57;98419.75;6134658;23;19997;-93
2023/03/12 00:12:32;;;;;;;4.85;1.50;;;;;;;6.80;41.82;98416.00;6134285;23;20008;-92
2023/03/12 00:14:58;;;;;;;9.05;1.60;;;;;;;6.82;42.17;98419.22;6134720;23;20001;-92
2023/03/12 00:17:23;;;;;;;2.92;1.75;;;;;;;6.79;42.04;98406.38;6111024;23;20380;-93
2023/03/12 00:19:52;;;;;;;5.13;1.50;;;;;;;6.97;41.48;98432.59;6111869;23;20013;-92
2023/03/12 00:22:21;;;;;;;6.50;1.60;;;;;;;6.87;41.40;98422.69;6113530;23;20061;-92
2023/03/12 00:24:50;;;;;;;4.57;1.63;;;;;;;6.81;42.00;98407.72;6137549;23;20005;-93
2023/03/12 00:27:16;;;;;;;9.07;1.95;;;;;;;6.87;41.93;98427.25;6138637;23;20028;-92
2023/03/12 00:29:41;;;;;;;4.18;2.10;;;;;;;6.78;42.22;98434.97;6112957;23;19997;-93
2023/03/12 00:32:07;;;;;;;3.88;1.55;;;;;;;6.59;42.00;98413.31;6136820;23;20413;-93
2023/03/12 00:34:33;;;;;;;3.45;1.60;;;;;;;6.60;42.38;98403.41;6112844;23;20029;-94
2023/03/12 00:36:58;;;;;;;8.05;1.75;;;;;;;6.70;42.36;98421.34;6112064;23;20009;-93
2023/03/12 00:39:24;;;;;;;5.95;1.83;;;;;;;6.73;42.53;98434.19;6136954;23;20093;-93
2023/03/12 00:41:50;;;;;;;6.45;1.52;;;;;;;6.55;42.54;98412.22;6113033;23;20008;-93
2023/03/12 00:44:18;;;;;;;16.13;2.17;;;;;;;6.57;42.82;98415.44;6112621;23;19997;-93
2023/03/12 00:46:44;;;;;;;5.55;1.48;;;;;;;6.54;42.51;98418.66;6113673;23;20005;-93
2023/03/12 00:49:10;;;;;;;17.40;2.25;;;;;;;6.48;42.97;98417.84;6111841;23;19997;-92
2023/03/12 00:51:36;;;;;;;8.55;1.70;;;;;;;6.63;42.18;98433.09;6112886;23;20409;-92
2023/03/12 00:54:02;;;;;;;8.30;1.80;;;;;;;6.40;42.93;98409.53;6137059;23;20001;-92
2023/03/12 00:56:27;;;;;;;5.25;1.77;;;;;;;6.40;42.18;98407.66;6136475;23;20194;-93
2023/03/12 00:58:53;;;;;;;4.00;1.55;;;;;;;6.34;42.99;98414.06;6112001;23;20041;-92
2023/03/12 01:01:19;;;;;;;6.90;1.80;;;;;;;6.35;42.57;98410.34;6136937;23;20024;-92
2023/03/12 01:03:44;;;;;;;4.00;1.80;;;;;;;6.26;42.25;98407.34;6112056;23;20009;-93
2023/03/12 01:06:19;;;;;;;8.57;2.20;;;;;;;6.42;42.75;98418.09;6136441;23;20090;-93
2023/03/12 01:08:44;;;;;;;6.03;1.77;;;;;;;6.34;42.37;98421.28;6114350;23;20055;-93
2023/03/12 01:11:18;;;;;;;7.25;1.65;;;;;;;6.47;42.20;98423.44;6111865;23;20004;-93
2023/03/12 01:13:43;;;;;;;4.43;1.63;;;;;;;6.34;42.17;98422.09;6112263;23;20008;-92
2023/03/12 01:16:12;;;;;;;5.57;1.55;;;;;;;6.33;42.57;98422.34;6112146;23;20005;-92
2023/03/12 01:18:38;;;;;;;3.03;1.40;;;;;;;6.39;42.25;98413.25;6113480;23;20005;-93
2023/03/12 01:21:06;;;;;;;7.57;2.33;;;;;;;6.36;42.46;98413.81;6112110;23;19997;-93
2023/03/12 01:23:32;;;;;;;2.70;1.70;;;;;;;6.24;42.48;98404.16;6137495;23;20005;-93
2023/03/12 01:25:58;;;;;;;3.58;1.33;;;;;;;6.15;42.88;98416.44;6112821;23;20497;-93
2023/03/12 01:28:24;;;;;;;2.85;1.52;;;;;;;6.19;43.27;98420.19;6112085;23;20037;-93
2023/03/12 01:30:49;;;;;;;3.95;1.50;;;;;;;6.24;42.49;98419.38;6112393;23;20008;-92
2023/03/12 01:33:15;;;;;;;2.50;1.73;;;;;;;6.18;42.34;98412.41;6136227;23;20001;-93
2023/03/12 01:35:41;;;;;;;12.55;1.85;;;;;;;6.24;42.68;98432.75;6113063;23;20451;-94
2023/03/12 01:38:07;;;;;;;5.57;1.48;;;;;;;6.17;42.74;98450.91;6112449;23;20020;-93
2023/03/12 01:40:34;;;;;;;6.28;1.92;;;;;;;6.11;42.84;98433.25;6111754;23;20008;-93
2023/03/12 01:43:14;;;;;;;2.88;1.65;;;;;;;6.15;42.46;98421.78;6136916;23;20005;-94
2023/03/12 01:46:00;;;;;;;4.97;1.63;;;;;;;6.26;42.08;98435.97;6114909;23;20036;-93
2023/03/12 01:48:27;;;;;;;5.30;1.50;;;;;;;6.10;42.39;98432.47;6137035;23;20009;-93
2023/03/12 01:50:53;;;;;;;5.00;1.70;;;;;;;6.14;42.37;98432.72;6112612;23;20451;-93
2023/03/12 01:53:19;;;;;;;3.38;1.50;;;;;;;5.84;42.75;98429.63;6111630;23;20001;-92
2023/03/12 01:55:44;;;;;;;4.32;1.90;;;;;;;5.98;42.73;98453.25;6136536;23;20001;-93
2023/03/12 01:58:10;;;;;;;10.13;1.90;;;;;;;5.73;43.12;98432.50;6112518;23;20004;-93
2023/03/12 02:00:35;;;;;;;3.58;1.80;;;;;;;5.83;43.65;98459.28;6112345;23;20005;-93
2023/03/12 02:03:06;;;;;;;3.42;1.73;;;;;;;5.81;42.88;98470.25;6136477;23;20036;-93
2023/03/12 02:05:47;;;;;;;3.38;1.85;;;;;;;5.83;43.35;98468.13;6135970;23;20004;-93
2023/03/12 02:08:13;;;;;;;5.53;1.50;;;;;;;5.84;43.25;98483.06;6113513;23;20060;-92
2023/03/12 02:10:39;;;;;;;5.43;1.85;;;;;;;5.85;44.33;98483.88;6111514;23;20068;-92
2023/03/12 02:13:05;;;;;;;3.60;1.85;;;;;;;5.96;43.60;98484.78;6136231;23;20004;-92
2023/03/12 02:15:32;;;;;;;6.50;1.90;;;;;;;5.81;44.17;98472.91;6112466;23;19997;-92
2023/03/12 02:17:57;;;;;;;10.68;2.58;;;;;;;5.65;44.17;98452.53;6111520;23;20033;-92
2023/03/12 02:20:29;;;;;;;8.18;2.00;;;;;;;5.75;43.94;98478.47;6111321;23;20009;-92
2023/03/12 02:23:06;;;;;;;7.05;1.90;;;;;;;5.54;44.10;98467.69;6136489;23;20000;-93
2023/03/12 02:25:40;;;;;;;2.92;1.90;;;;;;;5.67;44.75;98479.78;6136042;23;20012;-92
2023/03/12 02:28:11;;;;;;;5.05;1.67;;;;;;;5.40;45.07;98488.69;6111671;23;20502;-92
2023/03/12 02:30:38;;;;;;;2.97;1.85;;;;;;;5.39;45.37;98495.06;6135698;23;20056;-92
2023/03/12 02:33:06;;;;;;;3.30;1.65;;;;;;;5.37;44.99;98477.69;6135550;23;20008;-91
2023/03/12 02:35:32;;;;;;;13.75;2.00;;;;;;;5.49;44.37;98496.22;6111598;23;20005;-93
2023/03/12 02:37:58;;;;;;;3.03;1.90;;;;;;;5.33;44.45;98488.09;6111826;23;20096;-92
2023/03/12 02:40:36;;;;;;;2.20;1.65;;;;;;;5.34;44.20;98487.03;6136240;23;20005;-92
2023/03/12 02:43:03;;;;;;;2.28;1.45;;;;;;;5.26;45.28;98500.84;6111678;23;20001;-93
2023/03/12 02:45:29;;;;;;;3.33;1.70;;;;;;;5.19;45.22;98514.41;6112382;23;20005;-91
2023/03/12 02:47:54;;;;;;;3.60;1.70;;;;;;;5.13;45.69;98501.28;6111314;23;20024;-93
2023/03/12 02:50:20;;;;;;;3.75;1.77;;;;;;;5.07;45.77;98509.22;6111314;23;20004;-92
2023/03/12 02:52:46;;;;;;;7.60;4.68;;;;;;;5.15;45.49;98518.66;6111774;23;20036;-92
2023/03/12 02:55:12;;;;;;;5.53;2.30;;;;;;;5.21;44.82;98530.97;6111467;23;20070;-93
2023/03/12 02:57:37;;;;;;;3.13;1.90;;;;;;;4.96;45.68;98509.38;6111986;23;20432;-94
2023/03/12 03:00:06;;;;;;;3.70;2.05;;;;;;;5.03;46.55;98521.47;6111484;23;20005;-93
2023/03/12 03:02:32;;;;;;;9.85;1.95;;;;;;;5.08;46.08;98536.72;6136076;23;20008;-91
2023/03/12 03:04:57;;;;;;;4.45;1.90;;;;;;;5.00;46.35;98531.84;6111535;23;20001;-95
2023/03/12 03:07:23;;;;;;;5.57;1.98;;;;;;;5.09;46.17;98551.69;6110994;23;20084;-93
2023/03/12 03:09:48;;;;;;;4.40;2.20;;;;;;;5.04;46.54;98556.94;6111401;23;19994;-93
2023/03/12 03:12:14;;;;;;;15.02;2.30;;;;;;;5.12;46.15;98555.69;6135379;23;20024;-94
2023/03/12 03:14:39;;;;;;;9.25;2.15;;;;;;;4.86;46.24;98553.59;6111741;23;20005;-94
2023/03/12 03:17:05;;;;;;;6.95;2.00;;;;;;;4.98;46.05;98572.13;6111388;23;20000;-94
2023/03/12 03:19:31;;;;;;;2.72;2.20;;;;;;;5.00;46.08;98586.03;6135517;23;20005;-93
2023/03/12 03:21:56;;;;;;;2.15;1.75;;;;;;;5.03;45.78;98595.38;6110986;23;20004;-93
2023/03/12 03:24:22;;;;;;;5.40;1.67;;;;;;;4.99;45.91;98584.38;6111156;23;20076;-94
2023/03/12 03:26:50;;;;;;;2.15;1.75;;;;;;;4.85;46.52;98589.31;6110878;23;20007;-93
2023/03/12 03:29:15;;;;;;;3.50;1.88;;;;;;;4.87;46.07;98583.72;6135100;23;20009;-93
2023/03/12 03:31:41;;;;;;;3.08;1.90;;;;;;;4.77;46.51;98591.63;6111062;23;20041;-93
2023/03/12 03:34:07;;;;;;;4.13;1.75;;;;;;;4.79;46.06;98589.50;6135025;23;20019;-93
2023/03/12 03:36:32;;;;;;;3.05;1.77;;;;;;;4.80;45.81;98607.13;6135701;23;20478;-93
2023/03/12 03:38:58;;;;;;;2.97;1.58;;;;;;;4.63;46.19;98592.00;6111372;23;20020;-93
2023/03/12 03:41:24;;;;;;;3.65;2.10;;;;;;;4.67;46.62;98608.31;6135105;23;20428;-94
2023/03/12 03:43:50;;;;;;;6.32;2.00;;;;;;;4.64;46.10;98614.94;6111052;23;19997;-93
2023/03/12 03:46:15;;;;;;;5.03;1.60;;;;;;;4.50;46.13;98599.56;6111016;23;20333;-93
2023/03/12 03:48:41;;;;;;;2.50;1.48;;;;;;;4.54;45.89;98606.00;6111031;23;20000;-93
2023/03/12 03:51:08;;;;;;;2.50;1.88;;;;;;;4.68;45.88;98625.91;6111155;23;20486;-94
2023/03/12 03:53:33;;;;;;;2.85;1.80;;;;;;;4.56;45.52;98628.69;6110491;23;20005;-93
2023/03/12 03:56:07;;;;;;;6.03;1.90;;;;;;;4.51;45.34;98638.50;6135412;23;20009;-91
2023/03/12 03:58:32;;;;;;;2.78;1.60;;;;;;;4.37;45.15;98617.53;6111292;23;20001;-93
2023/03/12 04:00:58;;;;;;;4.93;1.90;;;;;;;4.41;44.66;98639.97;6110603;23;20009;-93
2023/03/12 04:03:23;;;;;;;2.63;1.75;;;;;;;4.30;45.73;98640.09;6110879;23;20059;-93
2023/03/12 04:05:59;;;;;;;2.25;1.65;;;;;;;4.31;45.23;98655.81;6111162;23;20005;-94
2023/03/12 04:08:25;;;;;;;2.47;1.63;;;;;;;4.36;45.27;98660.44;6135742;23;20000;-94
2023/03/12 04:10:50;;;;;;;2.15;1.50;;;;;;;4.36;44.87;98657.78;6110722;23;20027;-94
2023/03/12 04:13:16;;;;;;;2.33;1.45;;;;;;;4.39;44.77;98662.59;6111848;23;20081;-94
2023/03/12 04:15:49;;;;;;;2.88;1.55;;;;;;;4.38;44.33;98667.13;6111333;23;20005;-93
2023/03/12 04:18:14;;;;;;;2.28;1.60;;;;;;;4.21;44.88;98658.34;6112140;23;20032;-93
2023/03/12 04:20:40;;;;;;;4.07;1.67;;;;;;;4.30;44.99;98658.75;6110650;23;20005;-94
2023/03/12 04:23:06;;;;;;;4.57;1.50;;;;;;;4.18;44.69;98637.53;6110884;23;20432;-93
2023/03/12 04:25:31;;;;;;;2.58;1.60;;;;;;;4.15;44.53;98638.84;6135858;23;20024;-93
2023/03/12 04:27:57;;;;;;;5.43;1.60;;;;;;;4.23;45.07;98662.41;6110761;23;20450;-94
2023/03/12 04:30:23;;;;;;;3.30;1.55;;;;;;;4.19;45.07;98658.59;6135043;23;19997;-93
2023/03/12 04:32:48;;;;;;;4.93;1.67;;;;;;;4.18;45.59;98674.81;6110269;23;20044;-93
2023/03/12 04:35:14;;;;;;;2.33;1.52;;;;;;;4.22;44.99;98682.09;6110721;23;20027;-93
2023/03/12 04:37:39;;;;;;;4.45;1.88;;;;;;;4.20;44.51;98670.06;6136086;23;20003;-93
2023/03/12 04:40:07;;;;;;;2.55;1.80;;;;;;;4.11;44.03;98660.84;6110772;23;20009;-94
2023/03/12 04:42:35;;;;;;;1.77;1.45;;;;;;;4.11;44.95;98655.53;6111703;23;20348;-93
2023/03/12 04:45:03;;;;;;;3.42;1.50;;;;;;;4.22;44.93;98663.44;6110576;23;20000;-93
2023/03/12 04:47:30;;;;;;;2.35;1.50;;;;;;;4.36;44.32;98676.44;6111016;23;20043;-93
2023/03/12 04:49:55;;;;;;;4.10;1.75;;;;;;;4.27;44.20;98665.34;6134951;23;20001;-93
2023/03/12 04:52:21;;;;;;;2.67;1.67;;;;;;;4.37;44.01;98676.16;6110099;23;20001;-92
2023/03/12 04:54:46;;;;;;;4.72;1.70;;;;;;;4.23;44.88;98670.38;6110284;23;20004;-94
2023/03/12 04:57:12;;;;;;;3.50;1.95;;;;;;;4.36;44.34;98685.22;6110709;23;20004;-93
2023/03/12 04:59:37;;;;;;;5.32;1.42;;;;;;;4.46;43.86;98697.88;6110936;23;20001;-92
2023/03/12 05:02:03;;;;;;;6.20;2.45;;;;;;;4.35;43.84;98704.13;6110761;23;20001;-92
2023/03/12 05:04:29;;;;;;;3.10;1.67;;;;;;;4.28;44.14;98693.63;6110595;23;20012;-93
2023/03/12 05:06:54;;;;;;;5.97;2.05;;;;;;;4.37;44.57;98720.66;6113062;23;20001;-93
2023/03/12 05:09:20;;;;;;;3.20;1.95;;;;;;;4.50;44.16;98723.00;6112357;23;19997;-92
2023/03/12 05:11:46;;;;;;;1.75;1.33;;;;;;;4.60;43.73;98730.34;6112279;23;20071;-94
2023/03/12 05:14:11;;;;;;;2.35;1.50;;;;;;;4.71;43.92;98742.78;6112325;23;20001;-92
2023/03/12 05:16:37;;;;;;;5.82;1.80;;;;;;;4.59;43.26;98737.53;6112294;23;20001;-93
2023/03/12 05:19:03;;;;;;;7.30;1.60;;;;;;;4.73;44.19;98739.84;6136116;23;20359;-93
2023/03/12 05:21:28;;;;;;;4.50;1.90;;;;;;;4.75;43.87;98749.22;6112178;23;20012;-93
2023/03/12 05:23:54;;;;;;;2.92;1.73;;;;;;;4.75;43.83;98737.72;6136284;23;20056;-93
2023/03/12 05:26:19;;;;;;;2.53;1.60;;;;;;;4.72;44.06;98762.25;6136522;23;20512;-93
2023/03/12 05:28:45;;;;;;;1.67;1.33;;;;;;;4.66;44.15;98742.69;6160843;23;20035;-93
2023/03/12 05:31:11;;;;;;;2.78;1.65;;;;;;;4.70;43.62;98756.34;6112506;23;20062;-92
2023/03/12 05:33:37;;;;;;;2.10;1.60;;;;;;;4.57;44.22;98762.84;6112313;23;20364;-93
2023/03/12 05:36:03;;;;;;;1.92;1.45;;;;;;;4.67;44.00;98784.31;6137020;23;20001;-93
2023/03/12 05:38:28;;;;;;;3.95;1.90;;;;;;;4.73;43.45;98782.50;6136387;23;20005;-93
2023/03/12 05:40:55;;;;;;;2.90;1.77;;;;;;;4.77;42.87;98783.63;6112179;23;20005;-92
2023/03/12 05:43:21;;;;;;;2.35;1.60;;;;;;;4.86;43.35;98803.50;6112122;23;20087;-92
2023/03/12 05:45:47;;;;;;;2.10;1.63;;;;;;;4.89;43.16;98804.88;6112320;23;20029;-93
2023/03/12 05:48:12;;;;;;;4.38;1.90;;;;;;;4.93;43.09;98790.78;6112379;23;20001;-91
2023/03/12 05:50:38;;;;;;;5.05;1.63;;;;;;;4.82;43.13;98800.53;6136401;23;20028;-92
2023/03/12 05:53:03;;;;;;;2.90;1.67;;;;;;;4.91;42.68;98819.56;6111888;23;20471;-93
2023/03/12 05:55:29;;;;;;;2.70;1.60;;;;;;;4.89;43.20;98800.34;6136508;23;20008;-93
2023/03/12 05:57:55;;;;;;;2.78;1.48;;;;;;;4.95;42.77;98817.25;6111795;23;20007;-92
2023/03/12 06:00:21;;;;;;;3.58;2.00;;;;;;;5.04;42.49;98813.91;6112684;23;20008;-93
2023/03/12 06:02:46;;;;;;;4.07;1.65;;;;;;;5.11;42.41;98821.75;6136044;23;20008;-92
2023/03/12 06:05:12;;;;;;;7.18;1.55;;;;;;;5.02;42.44;98805.34;6136959;23;20001;-92
2023/03/12 06:07:38;;;;;;;2.92;1.77;;;;;;;5.10;42.24;98813.97;6136293;23;19993;-92
2023/03/12 06:10:04;;;;;;;3.03;1.70;;;;;;;5.20;42.54;98827.44;6111851;23;19997;-93
2023/03/12 06:12:30;;;;;;;3.92;1.80;;;;;;;5.22;41.96;98836.03;6136883;23;20001;-93
2023/03/12 06:14:56;;;;;;;2.55;1.73;;;;;;;5.20;42.07;98840.78;6111454;23;20326;-93
2023/03/12 06:17:22;;;;;;;2.55;1.83;;;;;;;5.24;41.89;98844.59;6136261;23;20005;-93
2023/03/12 06:19:51;;;;;;;4.68;2.15;;;;;;;5.29;41.85;98841.16;6111590;23;20012;-93
2023/03/12 06:22:17;;;;;;;3.22;2.00;;;;;;;5.28;41.96;98837.69;6135578;23;20012;-93
2023/03/12 06:24:46;;;;;;;4.47;2.05;;;;;;;5.25;41.62;98849.69;6112492;23;20001;-93
2023/03/12 06:27:12;;;;;;;6.25;2.92;;;;;;;5.23;41.73;98835.78;6113524;23;19997;-93
2023/03/12 06:29:37;;;;;;;6.55;2.67;;;;;;;5.40;41.69;98829.59;6111948;23;19997;-92
2023/03/12 06:32:03;;;;;;;3.78;2.10;;;;;;;5.47;41.50;98844.34;6112266;23;20024;-93
2023/03/12 06:34:29;;;;;;;4.57;2.00;;;;;;;5.53;41.24;98850.56;6130628;23;20384;-92
2023/03/12 06:36:55;;;;;;;4.72;2.30;;;;;;;5.35;41.18;98838.31;6106501;23;20009;-91
2023/03/12 06:39:20;;;;;;;3.42;2.20;;;;;;;5.58;41.18;98852.47;6132106;23;20006;-94
2023/03/12 06:41:46;;;;;;;3.03;1.85;;;;;;;5.50;41.12;98851.06;6106417;23;20009;-91
2023/03/12 06:44:11;;;;;;;2.53;1.75;;;;;;;5.54;41.83;98859.38;6131933;23;20440;-92
2023/03/12 06:46:37;;;;;;;3.85;2.35;;;;;;;5.57;41.83;98851.69;6105966;23;20006;-93
2023/03/12 06:49:03;;;;;;;4.70;2.63;;;;;;;5.66;41.15;98847.53;6130720;23;20005;-92
2023/03/12 06:51:28;;;;;;;4.45;2.50;;;;;;;5.85;41.01;98865.88;6130233;23;20047;-92
2023/03/12 06:53:54;;;;;;;9.35;2.72;;;;;;;5.94;41.07;98863.59;6105791;23;19997;-92
2023/03/12 06:56:20;;;;;;;10.10;4.00;;;;;;;6.05;39.96;98860.00;6105870;23;19998;-92
2023/03/12 06:58:45;;;;;;;6.15;2.83;;;;;;;5.97;40.35;98887.97;6105830;23;20424;-92
2023/03/12 07:01:11;;;;;;;9.85;4.03;;;;;;;6.03;40.87;98878.97;6105681;23;20012;-91
2023/03/12 07:03:36;;;;;;;9.80;3.63;;;;;;;5.98;40.15;98857.53;6105346;23;20004;-91
2023/03/12 07:06:02;;;;;;;4.03;2.47;;;;;;;6.14;40.00;98885.22;6106127;23;20348;-93
2023/03/12 07:08:29;;;;;;;3.47;2.30;;;;;;;6.10;39.78;98884.13;6106650;23;20008;-93
2023/03/12 07:10:56;;;;;;;5.55;2.50;;;;;;;5.95;40.39;98858.03;6107338;23;20033;-93
2023/03/12 07:13:21;;;;;;;7.55;4.22;;;;;;;6.10;39.95;98886.81;6106157;23;20088;-94
2023/03/12 07:15:47;;;;;;;3.35;2.38;;;;;;;6.13;40.02;98880.13;6131495;23;20076;-93
2023/03/12 07:18:13;;;;;;;2.80;1.90;;;;;;;6.26;39.81;98906.47;6105938;23;20012;-93
2023/03/12 07:20:40;;;;;;;5.65;2.80;;;;;;;6.13;40.05;98909.53;6130599;23;20067;-92
2023/03/12 07:23:05;;;;;;;3.25;1.83;;;;;;;6.24;40.47;98916.59;6106337;23;20024;-92
2023/03/12 07:25:35;;;;;;;9.85;2.20;;;;;;;6.43;39.51;98919.72;6106279;23;20001;-92
2023/03/12 07:28:00;;;;;;;3.85;2.40;;;;;;;6.48;39.11;98931.28;6106110;23;20002;-93
2023/03/12 07:30:26;;;;;;;4.05;2.10;;;;;;;6.51;39.49;98948.69;6106166;23;20092;-93
2023/03/12 07:32:51;;;;;;;2.78;2.17;;;;;;;6.46;39.41;98932.63;6105896;23;20068;-92
2023/03/12 07:35:17;;;;;;;5.60;2.95;;;;;;;6.37;38.75;98944.81;6105923;23;20531;-93
2023/03/12 07:37:42;;;;;;;4.35;2.50;;;;;;;6.33;39.06;98930.31;6106507;23;20083;-93
2023/03/12 07:40:09;;;;;;;3.90;2.30;;;;;;;6.42;39.15;98942.19;6105963;23;20005;-93
2023/03/12 07:42:35;;;;;;;3.67;2.15;;;;;;;6.64;39.51;98953.66;6105925;23;20349;-92
2023/03/12 07:45:00;;;;;;;4.25;2.72;;;;;;;6.72;39.21;98949.69;6105692;23;20036;-92
2023/03/12 07:47:26;;;;;;;5.78;2.95;;;;;;;6.95;38.88;98964.66;6130596;23;19998;-91
2023/03/12 07:49:52;;;;;;;3.50;2.42;;;;;;;7.15;38.09;98944.44;6105723;23;20052;-92
2023/03/12 07:52:19;;;;;;;3.35;2.05;;;;;;;7.28;38.97;98933.28;6106429;23;20400;-93
2023/03/12 07:54:44;;;;;;;3.90;2.47;;;;;;;7.36;38.25;98940.84;6131350;23;20031;-92
2023/03/12 07:57:10;;;;;;;5.55;2.78;;;;;;;7.47;37.81;98931.00;6130212;23;20006;-92
2023/03/12 07:59:35;;;;;;;5.13;2.17;;;;;;;7.68;37.48;98942.66;6105866;23;20041;-93
2023/03/12 08:02:01;;;;;;;4.32;2.40;;;;;;;7.92;36.74;98953.75;6106338;23;19997;-93
2023/03/12 08:04:27;;;;;;;2.63;2.20;;;;;;;7.77;36.88;98927.69;6130187;23;20063;-93
2023/03/12 08:06:52;;;;;;;2.95;2.15;;;;;;;7.64;36.84;98934.31;6106256;23;19998;-93
2023/03/12 08:09:18;;;;;;;3.35;2.20;;;;;;;7.54;36.93;98949.53;6130375;23;19997;-93
2023/03/12 08:11:44;;;;;;;3.08;2.10;;;;;;;7.65;37.08;98975.31;6106084;23;20008;-93
2023/03/12 08:14:09;;;;;;;5.15;2.22;;;;;;;7.80;37.08;98961.19;6130271;23;20013;-92
2023/03/12 08:16:35;;;;;;;4.25;2.45;;;;;;;7.89;36.22;98965.00;6130351;23;19997;-93
2023/03/12 08:19:00;;;;;;;3.95;2.20;;;;;;;7.91;36.75;98973.59;6105892;23;20002;-93
2023/03/12 08:21:29;;;;;;;3.38;2.20;;;;;;;7.86;36.90;98982.41;6106489;23;20027;-92
2023/03/12 08:23:55;;;;;;;3.88;2.20;;;;;;;8.02;36.70;98975.25;6105933;23;19998;-92
2023/03/12 08:26:20;;;;;;;5.10;2.35;;;;;;;8.10;36.23;98965.91;6105784;23;20329;-92
2023/03/12 08:29:00;;;;;;;4.38;2.42;;;;;;;8.26;36.43;98970.25;6105687;23;20004;-93
2023/03/12 08:31:27;;;;;;;4.38;2.20;;;;;;;8.14;36.06;98979.59;6110006;23;19998;-91
2023/03/12 08:33:56;;;;;;;3.00;2.25;;;;;;;7.98;36.55;99002.84;6106282;23;20025;-93
2023/03/12 08:36:24;;;;;;;2.80;1.85;;;;;;;8.04;36.47;99001.81;6131210;23;20492;-92
2023/03/12 08:38:49;;;;;;;6.35;2.20;;;;;;;8.03;36.38;98994.81;6107542;23;19997;-93
2023/03/12 08:41:16;;;;;;;5.65;2.03;;;;;;;8.12;36.28;98985.22;6108103;23;20333;-92
2023/03/12 08:43:41;;;;;;;4.57;2.30;;;;;;;8.21;35.68;98978.25;6108647;23;20001;-92
2023/03/12 08:46:07;;;;;;;5.88;2.28;;;;;;;8.27;36.30;98998.66;6132170;23;20460;-92
2023/03/12 08:48:33;;;;;;;2.88;2.15;;;;;;;8.21;35.58;98999.72;6131782;23;20005;-93
2023/03/12 08:50:59;;;;;;;3.83;1.90;;;;;;;8.14;35.52;99003.72;6131887;23;20176;-92
2023/03/12 08:53:25;;;;;;;5.20;3.28;;;;;;;8.21;36.05;99001.59;6132257;23;20001;-92
2023/03/12 08:55:53;;;;;;;3.33;2.30;;;;;;;8.04;36.15;98989.19;6132781;23;20036;-92
2023/03/12 08:58:20;;;;;;;4.28;2.50;;;;;;;8.30;36.43;99003.53;6107571;23;20006;-92
2023/03/12 09:00:46;;;;;;;4.20;2.35;;;;;;;8.30;36.02;99014.25;6107642;23;20015;-92
2023/03/12 09:03:13;;;;;;;2.80;2.08;;;;;;;8.35;35.42;99008.09;6132132;23;20407;-92
2023/03/12 09:05:40;;;;;;;3.00;2.33;;;;;;;8.41;35.83;99000.91;6108600;23;20017;-92
2023/03/12 09:08:06;;;;;;;4.07;2.15;;;;;;;8.51;35.74;99003.63;6107460;23;20095;-93
2023/03/12 09:10:32;;;;;;;2.90;1.92;;;;;;;8.44;35.29;99008.41;6107381;23;20001;-93
2023/03/12 09:12:58;;;;;;;3.53;2.22;;;;;;;8.38;35.76;99018.28;6107804;23;20084;-92
2023/03/12 09:15:27;;;;;;;3.58;2.20;;;;;;;8.40;36.32;99010.78;6107755;23;20001;-92
2023/03/12 09:17:54;;;;;;;3.08;2.10;;;;;;;8.57;35.39;99017.84;6108786;23;20463;-93
2023/03/12 09:20:20;;;;;;;3.20;2.10;;;;;;;8.65;35.06;99018.16;6108601;23;20005;-93
2023/03/12 09:22:46;;;;;;;3.33;2.15;;;;;;;8.77;35.37;99007.16;6132176;23;20006;-94
2023/03/12 09:25:12;;;;;;;2.90;1.90;;;;;;;8.75;35.67;99003.16;6107827;23;20004;-94
2023/03/12 09:27:42;;;;;;;3.03;2.10;;;;;;;9.04;34.89;99012.31;6107163;23;20002;-92
2023/03/12 09:30:11;;;;;;;2.58;1.90;;;;;;;9.12;35.11;99008.28;6107495;23;20002;-93
2023/03/12 09:32:36;;;;;;;2.67;1.90;;;;;;;9.00;35.08;99002.38;6107735;23;20278;-92
2023/03/12 09:35:02;;;;;;;4.55;2.17;;;;;;;9.17;35.36;99005.63;6107055;23;20018;-92
2023/03/12 09:37:28;;;;;;;5.68;2.10;;;;;;;9.19;34.75;99018.78;6107563;23;19997;-92
2023/03/12 09:39:53;;;;;;;3.83;1.85;;;;;;;9.01;34.16;99026.28;6107410;23;20040;-93
2023/03/12 09:42:57;;;;;;;3.25;2.60;;;;;;;9.14;34.29;99033.00;6107411;23;20091;-92
2023/03/12 09:45:24;;;;;;;7.82;2.28;;;;;;;9.02;34.89;99029.78;6131103;23;20440;-92
2023/03/12 09:47:54;;;;;;;6.25;2.47;;;;;;;8.84;35.33;99018.47;6106604;23;20005;-92
2023/03/12 09:50:24;;;;;;;4.28;2.40;;;;;;;8.92;35.19;99048.53;6108092;23;20349;-92
2023/03/12 09:53:15;;;;;;;5.28;2.38;;;;;;;8.93;35.29;99050.97;6131771;23;20005;-92
2023/03/12 09:55:42;;;;;;;5.00;2.58;;;;;;;8.95;34.98;99038.09;6108590;23;20001;-92
2023/03/12 09:58:12;;;;;;;4.80;2.10;;;;;;;8.88;35.33;99026.78;6108093;23;20076;-92
2023/03/12 10:00:38;;;;;;;2.60;1.80;;;;;;;8.93;35.44;99034.88;6108832;23;20013;-92
2023/03/12 10:03:46;;;;;;;3.00;1.88;;;;;;;9.14;35.30;99051.00;6107677;23;19998;-92
2023/03/12 10:06:18;;;;;;;4.28;2.28;;;;;;;8.96;35.31;99044.25;6156086;23;20008;-92
2023/03/12 10:08:43;;;;;;;;;;;;;;;8.86;35.63;99050.41;6109057;23;20005;-91
2023/03/12 10:11:37;;;;;;;3.78;2.22;;;;;;;8.61;36.03;99060.03;6156404;23;19954;-92
2023/03/12 10:14:41;;;;;;;3.45;2.45;;;;;;;8.75;35.88;99062.19;6155927;23;20001;-92
2023/03/12 10:17:06;;;;;;;3.33;1.95;;;;;;;8.60;36.42;99066.44;6155829;23;20024;-92
2023/03/12 10:19:47;;;;;;;4.68;2.30;;;;;;;8.63;36.58;99065.94;6157731;23;20006;-93
2023/03/12 10:22:38;;;;;;;2.65;1.85;;;;;;;8.61;36.13;99080.66;6156619;23;20008;-92
2023/03/12 10:25:24;;;;;;;3.55;2.50;;;;;;;8.56;36.51;99089.50;6156151;23;20009;-92
2023/03/12 10:27:50;;;;;;;4.78;2.20;;;;;;;8.45;36.77;99077.94;6156604;23;20009;-92
2023/03/12 10:30:22;;;;;;;5.47;2.88;;;;;;;8.41;37.20;99076.03;6131948;23;20002;-92
2023/03/12 10:32:55;;;;;;;5.20;2.50;;;;;;;8.60;36.75;99069.13;6109331;23;20012;-91
2023/03/12 10:35:23;;;;;;;3.63;2.50;;;;;;;8.65;36.96;99058.44;6107458;23;20025;-92
2023/03/12 10:38:07;;;;;;;2.92;2.17;;;;;;;8.75;35.86;99051.47;6130784;23;20084;-92
2023/03/12 10:40:33;;;;;;;3.35;2.10;;;;;;;8.89;36.22;99055.25;6108400;23;20344;-92
2023/03/12 10:43:35;;;;;;;3.45;2.10;;;;;;;9.14;35.94;99070.63;6106784;23;20012;-91
2023/03/12 10:46:40;;;;;;;4.00;2.10;;;;;;;9.10;35.80;99072.22;6131611;23;19998;-92
2023/03/12 10:49:22;;;;;;;2.78;2.30;;;;;;;9.15;35.94;99061.50;6153741;23;20504;-92
2023/03/12 10:51:58;;;;;;;2.95;2.10;;;;;;;9.31;36.19;99038.13;6130924;23;20036;-93
2023/03/12 10:54:28;;;;;;;3.08;2.35;;;;;;;9.44;35.50;99056.41;6131042;23;20021;-92
2023/03/12 10:56:53;;;;;;;3.28;2.28;;;;;;;9.28;35.86;99055.59;6130771;23;20001;-92
2023/03/12 10:59:20;;;;;;;4.90;2.45;;;;;;;9.35;35.87;99057.22;6106053;23;20064;-92
2023/03/12 11:01:50;;;;;;;3.03;2.20;;;;;;;9.65;35.41;99056.38;6106946;23;20483;-92
2023/03/12 11:04:17;;;;;;;3.50;2.10;;;;;;;9.85;34.03;99042.13;6105915;23;20396;-93
2023/03/12 11:06:45;;;;;;;4.93;2.22;;;;;;;10.09;33.94;99034.28;6106365;23;20005;-92
2023/03/12 11:09:20;;;;;;;3.15;2.38;;;;;;;10.23;33.50;99029.94;6130840;23;20433;-91
2023/03/12 11:11:46;;;;;;;2.60;2.10;;;;;;;10.30;33.67;99051.97;6106745;23;20001;-92
2023/03/12 11:14:20;;;;;;;2.83;2.17;;;;;;;10.15;33.17;99053.88;6107022;23;20005;-92
2023/03/12 11:16:46;;;;;;;3.45;2.50;;;;;;;10.05;34.32;99062.78;6130762;23;20072;-92
2023/03/12 11:19:13;;;;;;;6.43;2.53;;;;;;;10.03;33.84;99048.81;6105987;23;20005;-92
2023/03/12 11:21:39;;;;;;;3.38;2.33;;;;;;;9.95;34.11;99060.94;6106589;23;20098;-93
2023/03/12 11:24:12;;;;;;;3.55;2.50;;;;;;;9.85;34.33;99050.19;6106199;23;19998;-92
2023/03/12 11:26:55;;;;;;;3.53;2.50;;;;;;;9.91;33.98;99055.28;6106485;23;20008;-92
2023/03/12 11:29:50;;;;;;;2.65;2.03;;;;;;;9.65;34.01;99065.28;6107597;23;20322;-93
2023/03/12 11:32:21;;;;;;;2.95;2.17;;;;;;;9.64;33.56;99076.28;6123857;23;20001;-91
2023/03/12 11:34:48;;;;;;;3.10;1.92;;;;;;;9.54;33.37;99066.34;6130041;23;20025;-92
2023/03/12 11:37:32;;;;;;;3.38;2.25;;;;;;;9.42;34.17;99074.69;6130692;23;20004;-93
2023/03/12 11:40:24;;;;;;;3.30;2.25;;;;;;;9.36;34.22;99072.25;6155016;23;20009;-92
2023/03/12 11:43:22;;;;;;;4.28;2.63;;;;;;;9.17;34.76;99078.16;6134454;23;20441;-91
2023/03/12 11:46:11;;;;;;;2.83;2.10;;;;;;;9.20;34.86;99058.81;6154242;23;20001;-92